sensor_id;sensor_type;location;lat;lon;timestamp;P1;P4;P2;P0;N10;N4;N25;N1;N05;TS
43196;SPS30;28816;49.852;18.282;2024-01-11T00:03:14;82.230000;;80.450000;74.080000;;;;;;
43196;SPS30;28816;49.852;18.282;2024-01-11T00:08:16;80.650000;;78.360000;71.890000;;;;;;
43196;SPS30;28816;49.852;18.282;2024-01-11T00:13:18;81.030000;;79.560000;74.110000;;;;;;
43196;SPS30;28816;49.852;18.282;2024-01-11T00:18:19;83.620000;;80.820000;73.780000;;;;;;
43196;SPS30;28816;49.852;18.282;2024-01-11T00:23:21;86.050000;;83.270000;75.870000;;;;;;
43196;SPS30;28816;49.852;18.282;2024-01-11T00:28:23;84.830000;;82.470000;75.640000;;;;;;
43196;SPS30;28816;49.852;18.282;2024-01-11T00:33:25;82.410000;;80.350000;74.000000;;;;;;
43196;SPS30;28816;49.852;18.282;2024-01-11T00:38:27;81.300000;;78.940000;72.340000;;;;;;
43196;SPS30;28816;49.852;18.282;2024-01-11T00:43:29;81.990000;;79.590000;73.230000;;;;;;
43196;SPS30;28816;49.852;18.282;2024-01-11T00:48:31;81.480000;;79.440000;72.800000;;;;;;
43196;SPS30;28816;49.852;18.282;2024-01-11T00:53:33;79.140000;;76.970000;70.660000;;;;;;
43196;SPS30;28816;49.852;18.282;2024-01-11T00:58:34;76.440000;;74.870000;68.670000;;;;;;
43196;SPS30;28816;49.852;18.282;2024-01-11T01:03:38;75.930000;;74.090000;68.340000;;;;;;
43196;SPS30;28816;49.852;18.282;2024-01-11T01:08:40;73.770000;;71.920000;65.600000;;;;;;
43196;SPS30;28816;49.852;18.282;2024-01-11T01:13:41;75.980000;;73.150000;66.220000;;;;;;
43196;SPS30;28816;49.852;18.282;2024-01-11T01:18:43;71.150000;;69.030000;63.440000;;;;;;
43196;SPS30;28816;49.852;18.282;2024-01-11T01:23:46;76.840000;;74.440000;68.340000;;;;;;
43196;SPS30;28816;49.852;18.282;2024-01-11T01:28:47;75.300000;;73.170000;66.990000;;;;;;
43196;SPS30;28816;49.852;18.282;2024-01-11T01:33:49;76.840000;;74.650000;68.600000;;;;;;
43196;SPS30;28816;49.852;18.282;2024-01-11T01:38:51;74.640000;;71.590000;65.310000;;;;;;
43196;SPS30;28816;49.852;18.282;2024-01-11T01:43:53;74.310000;;72.170000;66.710000;;;;;;
43196;SPS30;28816;49.852;18.282;2024-01-11T01:48:54;75.600000;;73.930000;67.430000;;;;;;
43196;SPS30;28816;49.852;18.282;2024-01-11T01:53:57;70.430000;;68.660000;63.070000;;;;;;
43196;SPS30;28816;49.852;18.282;2024-01-11T01:59:00;72.170000;;70.220000;64.590000;;;;;;
43196;SPS30;28816;49.852;18.282;2024-01-11T02:04:03;66.130000;;64.480000;58.720000;;;;;;
43196;SPS30;28816;49.852;18.282;2024-01-11T02:09:06;64.890000;;62.670000;57.770000;;;;;;
43196;SPS30;28816;49.852;18.282;2024-01-11T02:14:09;63.110000;;61.500000;56.410000;;;;;;
43196;SPS30;28816;49.852;18.282;2024-01-11T02:19:11;66.750000;;65.130000;59.580000;;;;;;
43196;SPS30;28816;49.852;18.282;2024-01-11T02:24:13;45.520000;;44.150000;40.260000;;;;;;
43196;SPS30;28816;49.852;18.282;2024-01-11T02:29:16;62.850000;;62.020000;57.660000;;;;;;
43196;SPS30;28816;49.852;18.282;2024-01-11T02:34:18;64.390000;;62.220000;57.250000;;;;;;
43196;SPS30;28816;49.852;18.282;2024-01-11T02:39:20;66.240000;;64.400000;59.490000;;;;;;
43196;SPS30;28816;49.852;18.282;2024-01-11T02:44:24;66.440000;;64.830000;59.690000;;;;;;
43196;SPS30;28816;49.852;18.282;2024-01-11T02:49:26;65.920000;;63.680000;58.190000;;;;;;
43196;SPS30;28816;49.852;18.282;2024-01-11T02:54:28;67.760000;;66.110000;61.010000;;;;;;
43196;SPS30;28816;49.852;18.282;2024-01-11T02:59:30;65.810000;;64.200000;59.160000;;;;;;
43196;SPS30;28816;49.852;18.282;2024-01-11T03:04:32;66.280000;;64.930000;59.720000;;;;;;
43196;SPS30;28816;49.852;18.282;2024-01-11T03:09:35;62.380000;;59.940000;54.770000;;;;;;
43196;SPS30;28816;49.852;18.282;2024-01-11T03:14:36;66.900000;;64.860000;59.320000;;;;;;
43196;SPS30;28816;49.852;18.282;2024-01-11T03:19:39;65.650000;;64.320000;59.480000;;;;;;
43196;SPS30;28816;49.852;18.282;2024-01-11T03:24:42;66.300000;;64.760000;59.390000;;;;;;
43196;SPS30;28816;49.852;18.282;2024-01-11T03:29:43;64.140000;;61.630000;55.810000;;;;;;
43196;SPS30;28816;49.852;18.282;2024-01-11T03:34:45;65.570000;;63.420000;57.880000;;;;;;
43196;SPS30;28816;49.852;18.282;2024-01-11T03:39:47;65.670000;;63.990000;59.140000;;;;;;
43196;SPS30;28816;49.852;18.282;2024-01-11T03:44:49;70.230000;;68.080000;62.630000;;;;;;
43196;SPS30;28816;49.852;18.282;2024-01-11T03:49:50;67.550000;;65.520000;60.250000;;;;;;
43196;SPS30;28816;49.852;18.282;2024-01-11T03:54:52;62.360000;;61.060000;56.680000;;;;;;
43196;SPS30;28816;49.852;18.282;2024-01-11T03:59:54;65.860000;;64.120000;58.940000;;;;;;
43196;SPS30;28816;49.852;18.282;2024-01-11T04:04:57;65.520000;;63.660000;58.760000;;;;;;
43196;SPS30;28816;49.852;18.282;2024-01-11T04:09:58;68.350000;;66.560000;61.380000;;;;;;
43196;SPS30;28816;49.852;18.282;2024-01-11T04:15:00;67.610000;;65.790000;60.570000;;;;;;
43196;SPS30;28816;49.852;18.282;2024-01-11T04:20:02;66.100000;;64.550000;59.400000;;;;;;
43196;SPS30;28816;49.852;18.282;2024-01-11T04:25:05;67.540000;;65.290000;59.400000;;;;;;
43196;SPS30;28816;49.852;18.282;2024-01-11T04:30:07;66.200000;;64.890000;60.290000;;;;;;
43196;SPS30;28816;49.852;18.282;2024-01-11T04:35:10;67.580000;;65.970000;60.790000;;;;;;
43196;SPS30;28816;49.852;18.282;2024-01-11T04:40:12;64.930000;;63.630000;58.610000;;;;;;
43196;SPS30;28816;49.852;18.282;2024-01-11T04:45:14;64.660000;;63.020000;58.620000;;;;;;
43196;SPS30;28816;49.852;18.282;2024-01-11T04:50:16;67.130000;;65.470000;60.110000;;;;;;
43196;SPS30;28816;49.852;18.282;2024-01-11T04:55:18;67.110000;;65.000000;58.640000;;;;;;
43196;SPS30;28816;49.852;18.282;2024-01-11T05:00:20;70.950000;;68.820000;62.960000;;;;;;
43196;SPS30;28816;49.852;18.282;2024-01-11T05:05:21;73.700000;;71.490000;65.360000;;;;;;
43196;SPS30;28816;49.852;18.282;2024-01-11T05:10:23;68.720000;;67.540000;63.050000;;;;;;
43196;SPS30;28816;49.852;18.282;2024-01-11T05:15:25;79.090000;;77.300000;71.580000;;;;;;
43196;SPS30;28816;49.852;18.282;2024-01-11T05:20:28;68.320000;;66.120000;60.470000;;;;;;
43196;SPS30;28816;49.852;18.282;2024-01-11T05:25:30;71.630000;;69.670000;64.010000;;;;;;
43196;SPS30;28816;49.852;18.282;2024-01-11T05:30:33;69.460000;;67.840000;62.680000;;;;;;
43196;SPS30;28816;49.852;18.282;2024-01-11T05:35:36;72.100000;;70.300000;64.430000;;;;;;
43196;SPS30;28816;49.852;18.282;2024-01-11T05:40:37;71.490000;;69.950000;64.640000;;;;;;
43196;SPS30;28816;49.852;18.282;2024-01-11T05:45:40;67.640000;;65.460000;59.340000;;;;;;
43196;SPS30;28816;49.852;18.282;2024-01-11T05:50:42;69.990000;;68.330000;62.550000;;;;;;
43196;SPS30;28816;49.852;18.282;2024-01-11T05:55:44;69.000000;;67.240000;61.000000;;;;;;
43196;SPS30;28816;49.852;18.282;2024-01-11T06:00:46;88.800000;;85.860000;78.010000;;;;;;
43196;SPS30;28816;49.852;18.282;2024-01-11T06:05:49;78.870000;;76.450000;68.790000;;;;;;
43196;SPS30;28816;49.852;18.282;2024-01-11T06:10:51;83.920000;;81.310000;74.730000;;;;;;
43196;SPS30;28816;49.852;18.282;2024-01-11T06:15:52;88.610000;;85.920000;78.330000;;;;;;
43196;SPS30;28816;49.852;18.282;2024-01-11T06:20:55;82.820000;;80.320000;73.480000;;;;;;
43196;SPS30;28816;49.852;18.282;2024-01-11T06:25:57;75.300000;;72.880000;67.000000;;;;;;
43196;SPS30;28816;49.852;18.282;2024-01-11T06:30:58;71.910000;;70.150000;64.780000;;;;;;
43196;SPS30;28816;49.852;18.282;2024-01-11T06:36:00;70.100000;;68.220000;62.940000;;;;;;
43196;SPS30;28816;49.852;18.282;2024-01-11T06:41:02;70.120000;;68.690000;63.910000;;;;;;
43196;SPS30;28816;49.852;18.282;2024-01-11T06:46:05;69.880000;;68.670000;63.580000;;;;;;
43196;SPS30;28816;49.852;18.282;2024-01-11T06:51:07;66.560000;;65.690000;60.510000;;;;;;
43196;SPS30;28816;49.852;18.282;2024-01-11T06:56:09;57.530000;;56.320000;52.460000;;;;;;
43196;SPS30;28816;49.852;18.282;2024-01-11T07:01:14;62.280000;;60.770000;56.130000;;;;;;
43196;SPS30;28816;49.852;18.282;2024-01-11T07:06:17;63.090000;;61.640000;56.700000;;;;;;
43196;SPS30;28816;49.852;18.282;2024-01-11T07:11:19;67.500000;;66.020000;61.400000;;;;;;
43196;SPS30;28816;49.852;18.282;2024-01-11T07:16:22;67.600000;;65.580000;59.570000;;;;;;
43196;SPS30;28816;49.852;18.282;2024-01-11T07:21:24;66.740000;;64.720000;59.760000;;;;;;
43196;SPS30;28816;49.852;18.282;2024-01-11T07:26:26;66.040000;;64.590000;59.850000;;;;;;
43196;SPS30;28816;49.852;18.282;2024-01-11T07:31:28;63.730000;;61.880000;56.910000;;;;;;
43196;SPS30;28816;49.852;18.282;2024-01-11T07:36:30;63.670000;;62.400000;57.380000;;;;;;
43196;SPS30;28816;49.852;18.282;2024-01-11T07:41:32;64.370000;;62.160000;57.050000;;;;;;
43196;SPS30;28816;49.852;18.282;2024-01-11T07:46:35;65.770000;;64.170000;59.520000;;;;;;
43196;SPS30;28816;49.852;18.282;2024-01-11T07:51:36;57.760000;;56.590000;52.200000;;;;;;
43196;SPS30;28816;49.852;18.282;2024-01-11T07:56:39;61.750000;;60.390000;55.950000;;;;;;
43196;SPS30;28816;49.852;18.282;2024-01-11T08:01:41;61.240000;;60.360000;56.140000;;;;;;
43196;SPS30;28816;49.852;18.282;2024-01-11T08:06:43;60.380000;;59.160000;54.800000;;;;;;
43196;SPS30;28816;49.852;18.282;2024-01-11T08:11:46;64.820000;;63.020000;57.910000;;;;;;
43196;SPS30;28816;49.852;18.282;2024-01-11T08:16:48;62.760000;;61.720000;56.900000;;;;;;
43196;SPS30;28816;49.852;18.282;2024-01-11T08:21:50;57.630000;;56.720000;53.200000;;;;;;
43196;SPS30;28816;49.852;18.282;2024-01-11T08:26:52;63.440000;;61.660000;56.850000;;;;;;
43196;SPS30;28816;49.852;18.282;2024-01-11T08:31:55;62.740000;;61.950000;57.550000;;;;;;
43196;SPS30;28816;49.852;18.282;2024-01-11T08:36:57;50.040000;;49.310000;46.410000;;;;;;
43196;SPS30;28816;49.852;18.282;2024-01-11T08:41:59;52.540000;;51.150000;47.150000;;;;;;
43196;SPS30;28816;49.852;18.282;2024-01-11T08:47:02;43.840000;;43.200000;40.320000;;;;;;
43196;SPS30;28816;49.852;18.282;2024-01-11T08:52:04;36.930000;;36.420000;34.290000;;;;;;
43196;SPS30;28816;49.852;18.282;2024-01-11T08:57:06;36.680000;;36.370000;33.930000;;;;;;
43196;SPS30;28816;49.852;18.282;2024-01-11T09:02:08;37.770000;;37.100000;34.500000;;;;;;
43196;SPS30;28816;49.852;18.282;2024-01-11T09:07:10;40.710000;;40.160000;37.290000;;;;;;
43196;SPS30;28816;49.852;18.282;2024-01-11T09:12:12;41.270000;;40.770000;38.300000;;;;;;
43196;SPS30;28816;49.852;18.282;2024-01-11T09:17:14;39.320000;;38.800000;36.500000;;;;;;
43196;SPS30;28816;49.852;18.282;2024-01-11T09:22:16;37.030000;;36.490000;34.330000;;;;;;
43196;SPS30;28816;49.852;18.282;2024-01-11T09:27:18;39.320000;;38.390000;35.490000;;;;;;
43196;SPS30;28816;49.852;18.282;2024-01-11T09:32:21;40.740000;;40.200000;37.730000;;;;;;
43196;SPS30;28816;49.852;18.282;2024-01-11T09:37:23;38.770000;;38.270000;35.400000;;;;;;
43196;SPS30;28816;49.852;18.282;2024-01-11T09:42:25;40.810000;;40.240000;37.330000;;;;;;
43196;SPS30;28816;49.852;18.282;2024-01-11T09:47:27;40.110000;;39.020000;36.010000;;;;;;
43196;SPS30;28816;49.852;18.282;2024-01-11T09:52:30;37.030000;;36.620000;34.400000;;;;;;
43196;SPS30;28816;49.852;18.282;2024-01-11T09:57:32;40.380000;;39.530000;36.920000;;;;;;
43196;SPS30;28816;49.852;18.282;2024-01-11T10:02:36;40.110000;;39.470000;36.760000;;;;;;
43196;SPS30;28816;49.852;18.282;2024-01-11T10:07:39;45.670000;;44.420000;40.270000;;;;;;
43196;SPS30;28816;49.852;18.282;2024-01-11T10:12:41;43.870000;;42.900000;39.970000;;;;;;
43196;SPS30;28816;49.852;18.282;2024-01-11T10:17:43;46.140000;;45.110000;41.680000;;;;;;
43196;SPS30;28816;49.852;18.282;2024-01-11T10:22:45;50.690000;;49.820000;45.850000;;;;;;
43196;SPS30;28816;49.852;18.282;2024-01-11T10:27:48;47.190000;;46.510000;43.300000;;;;;;
43196;SPS30;28816;49.852;18.282;2024-01-11T10:32:50;51.000000;;50.570000;46.720000;;;;;;
43196;SPS30;28816;49.852;18.282;2024-01-11T10:37:52;49.930000;;49.310000;46.490000;;;;;;
43196;SPS30;28816;49.852;18.282;2024-01-11T10:42:56;50.290000;;49.720000;46.050000;;;;;;
43196;SPS30;28816;49.852;18.282;2024-01-11T10:47:59;49.030000;;48.450000;45.400000;;;;;;
43196;SPS30;28816;49.852;18.282;2024-01-11T10:53:02;50.470000;;49.290000;45.600000;;;;;;
43196;SPS30;28816;49.852;18.282;2024-01-11T10:58:15;50.040000;;49.320000;45.560000;;;;;;
43196;SPS30;28816;49.852;18.282;2024-01-11T11:03:18;50.850000;;50.360000;46.970000;;;;;;
43196;SPS30;28816;49.852;18.282;2024-01-11T11:08:22;48.930000;;48.350000;45.090000;;;;;;
43196;SPS30;28816;49.852;18.282;2024-01-11T11:13:24;52.110000;;51.090000;47.320000;;;;;;
43196;SPS30;28816;49.852;18.282;2024-01-11T11:18:26;44.960000;;44.010000;41.010000;;;;;;
43196;SPS30;28816;49.852;18.282;2024-01-11T11:23:28;42.100000;;41.480000;38.930000;;;;;;
43196;SPS30;28816;49.852;18.282;2024-01-11T11:28:30;38.050000;;37.580000;34.860000;;;;;;
43196;SPS30;28816;49.852;18.282;2024-01-11T11:33:32;40.350000;;39.820000;37.350000;;;;;;
43196;SPS30;28816;49.852;18.282;2024-01-11T11:38:35;46.090000;;45.000000;41.610000;;;;;;
43196;SPS30;28816;49.852;18.282;2024-01-11T11:43:38;47.560000;;47.040000;44.160000;;;;;;
43196;SPS30;28816;49.852;18.282;2024-01-11T11:48:40;51.070000;;49.880000;46.070000;;;;;;
43196;SPS30;28816;49.852;18.282;2024-01-11T11:53:50;46.480000;;45.460000;42.120000;;;;;;
43196;SPS30;28816;49.852;18.282;2024-01-11T11:58:53;46.610000;;45.690000;42.770000;;;;;;
43196;SPS30;28816;49.852;18.282;2024-01-11T12:03:55;46.650000;;45.700000;42.310000;;;;;;
43196;SPS30;28816;49.852;18.282;2024-01-11T12:08:57;46.140000;;45.230000;41.740000;;;;;;
43196;SPS30;28816;49.852;18.282;2024-01-11T12:13:59;45.240000;;44.700000;41.610000;;;;;;
43196;SPS30;28816;49.852;18.282;2024-01-11T12:19:01;42.420000;;41.400000;38.750000;;;;;;
43196;SPS30;28816;49.852;18.282;2024-01-11T12:24:06;42.000000;;41.050000;37.880000;;;;;;
43196;SPS30;28816;49.852;18.282;2024-01-11T12:29:08;42.100000;;41.160000;38.140000;;;;;;
43196;SPS30;28816;49.852;18.282;2024-01-11T12:34:11;39.200000;;38.650000;35.680000;;;;;;
43196;SPS30;28816;49.852;18.282;2024-01-11T12:39:13;40.870000;;40.250000;37.370000;;;;;;
43196;SPS30;28816;49.852;18.282;2024-01-11T12:44:16;37.810000;;37.230000;34.600000;;;;;;
43196;SPS30;28816;49.852;18.282;2024-01-11T12:49:18;36.670000;;36.270000;33.770000;;;;;;
43196;SPS30;28816;49.852;18.282;2024-01-11T12:54:21;35.960000;;35.470000;33.110000;;;;;;
43196;SPS30;28816;49.852;18.282;2024-01-11T12:59:23;37.230000;;37.090000;34.800000;;;;;;
43196;SPS30;28816;49.852;18.282;2024-01-11T13:04:26;39.740000;;39.370000;36.750000;;;;;;
43196;SPS30;28816;49.852;18.282;2024-01-11T13:09:28;40.450000;;39.260000;35.920000;;;;;;
43196;SPS30;28816;49.852;18.282;2024-01-11T13:14:30;42.310000;;41.730000;38.610000;;;;;;
43196;SPS30;28816;49.852;18.282;2024-01-11T13:19:32;41.360000;;40.830000;38.240000;;;;;;
43196;SPS30;28816;49.852;18.282;2024-01-11T13:24:34;39.670000;;39.070000;36.630000;;;;;;
43196;SPS30;28816;49.852;18.282;2024-01-11T13:29:37;39.760000;;39.090000;36.500000;;;;;;
43196;SPS30;28816;49.852;18.282;2024-01-11T13:34:39;43.350000;;42.440000;39.020000;;;;;;
43196;SPS30;28816;49.852;18.282;2024-01-11T13:39:41;46.590000;;46.080000;42.890000;;;;;;
43196;SPS30;28816;49.852;18.282;2024-01-11T13:44:43;46.590000;;45.320000;41.760000;;;;;;
43196;SPS30;28816;49.852;18.282;2024-01-11T13:49:45;51.230000;;49.890000;45.850000;;;;;;
43196;SPS30;28816;49.852;18.282;2024-01-11T13:54:48;52.540000;;51.460000;47.440000;;;;;;
43196;SPS30;28816;49.852;18.282;2024-01-11T13:59:50;47.320000;;46.570000;43.370000;;;;;;
43196;SPS30;28816;49.852;18.282;2024-01-11T14:04:52;49.350000;;48.540000;44.890000;;;;;;
43196;SPS30;28816;49.852;18.282;2024-01-11T14:09:54;48.180000;;47.480000;44.030000;;;;;;
43196;SPS30;28816;49.852;18.282;2024-01-11T14:14:56;50.400000;;49.370000;45.850000;;;;;;
43196;SPS30;28816;49.852;18.282;2024-01-11T14:19:59;50.320000;;49.610000;45.820000;;;;;;
43196;SPS30;28816;49.852;18.282;2024-01-11T14:25:01;53.120000;;52.590000;49.210000;;;;;;
43196;SPS30;28816;49.852;18.282;2024-01-11T14:30:04;50.430000;;49.380000;46.090000;;;;;;
43196;SPS30;28816;49.852;18.282;2024-01-11T14:35:07;53.830000;;53.440000;50.120000;;;;;;
43196;SPS30;28816;49.852;18.282;2024-01-11T14:40:09;54.270000;;53.420000;49.750000;;;;;;
43196;SPS30;28816;49.852;18.282;2024-01-11T14:45:11;56.440000;;55.400000;51.530000;;;;;;
43196;SPS30;28816;49.852;18.282;2024-01-11T14:50:14;55.400000;;54.230000;49.940000;;;;;;
43196;SPS30;28816;49.852;18.282;2024-01-11T14:55:16;58.750000;;57.600000;53.070000;;;;;;
43196;SPS30;28816;49.852;18.282;2024-01-11T15:00:18;58.530000;;57.440000;53.100000;;;;;;
43196;SPS30;28816;49.852;18.282;2024-01-11T15:05:20;57.640000;;56.780000;52.750000;;;;;;
43196;SPS30;28816;49.852;18.282;2024-01-11T15:10:23;56.740000;;55.890000;52.190000;;;;;;
43196;SPS30;28816;49.852;18.282;2024-01-11T15:15:25;57.760000;;56.130000;51.680000;;;;;;
43196;SPS30;28816;49.852;18.282;2024-01-11T15:20:27;59.250000;;58.160000;54.060000;;;;;;
43196;SPS30;28816;49.852;18.282;2024-01-11T15:25:29;57.210000;;56.600000;52.680000;;;;;;
43196;SPS30;28816;49.852;18.282;2024-01-11T15:30:31;55.120000;;54.450000;50.710000;;;;;;
43196;SPS30;28816;49.852;18.282;2024-01-11T15:35:33;58.360000;;57.070000;52.690000;;;;;;
43196;SPS30;28816;49.852;18.282;2024-01-11T15:40:35;57.120000;;56.280000;52.460000;;;;;;
43196;SPS30;28816;49.852;18.282;2024-01-11T15:45:37;56.510000;;55.660000;52.110000;;;;;;
43196;SPS30;28816;49.852;18.282;2024-01-11T15:50:39;58.240000;;57.320000;52.890000;;;;;;
43196;SPS30;28816;49.852;18.282;2024-01-11T15:55:41;56.870000;;56.270000;52.320000;;;;;;
43196;SPS30;28816;49.852;18.282;2024-01-11T16:00:43;59.520000;;58.510000;54.720000;;;;;;
43196;SPS30;28816;49.852;18.282;2024-01-11T16:05:45;61.300000;;59.960000;55.260000;;;;;;
43196;SPS30;28816;49.852;18.282;2024-01-11T16:10:47;63.550000;;62.230000;57.640000;;;;;;
43196;SPS30;28816;49.852;18.282;2024-01-11T16:15:49;64.590000;;63.060000;58.460000;;;;;;
43196;SPS30;28816;49.852;18.282;2024-01-11T16:20:51;55.420000;;53.840000;49.660000;;;;;;
43196;SPS30;28816;49.852;18.282;2024-01-11T16:25:53;54.140000;;52.610000;48.990000;;;;;;
43196;SPS30;28816;49.852;18.282;2024-01-11T16:30:55;40.600000;;39.650000;36.130000;;;;;;
43196;SPS30;28816;49.852;18.282;2024-01-11T16:35:58;38.370000;;36.930000;33.430000;;;;;;
43196;SPS30;28816;49.852;18.282;2024-01-11T16:41:00;34.340000;;32.930000;30.050000;;;;;;
43196;SPS30;28816;49.852;18.282;2024-01-11T16:46:02;38.840000;;37.290000;33.670000;;;;;;
43196;SPS30;28816;49.852;18.282;2024-01-11T16:51:04;38.330000;;36.350000;32.580000;;;;;;
43196;SPS30;28816;49.852;18.282;2024-01-11T16:56:06;36.660000;;35.980000;33.070000;;;;;;
43196;SPS30;28816;49.852;18.282;2024-01-11T17:01:09;38.330000;;37.000000;33.670000;;;;;;
43196;SPS30;28816;49.852;18.282;2024-01-11T17:06:11;39.660000;;38.240000;35.090000;;;;;;
43196;SPS30;28816;49.852;18.282;2024-01-11T17:11:13;39.310000;;37.970000;34.470000;;;;;;
43196;SPS30;28816;49.852;18.282;2024-01-11T17:16:15;41.170000;;40.230000;36.520000;;;;;;
43196;SPS30;28816;49.852;18.282;2024-01-11T17:21:18;41.430000;;40.270000;36.920000;;;;;;
43196;SPS30;28816;49.852;18.282;2024-01-11T17:26:20;41.090000;;40.110000;37.450000;;;;;;
43196;SPS30;28816;49.852;18.282;2024-01-11T17:31:22;40.780000;;40.010000;36.900000;;;;;;
43196;SPS30;28816;49.852;18.282;2024-01-11T17:36:24;42.620000;;41.740000;38.340000;;;;;;
43196;SPS30;28816;49.852;18.282;2024-01-11T17:41:26;44.000000;;42.830000;39.200000;;;;;;
43196;SPS30;28816;49.852;18.282;2024-01-11T17:46:28;44.150000;;42.290000;38.180000;;;;;;
43196;SPS30;28816;49.852;18.282;2024-01-11T17:51:31;49.770000;;48.510000;44.750000;;;;;;
43196;SPS30;28816;49.852;18.282;2024-01-11T17:56:33;47.830000;;45.960000;41.470000;;;;;;
43196;SPS30;28816;49.852;18.282;2024-01-11T18:01:38;46.720000;;45.250000;41.330000;;;;;;
43196;SPS30;28816;49.852;18.282;2024-01-11T18:06:40;49.290000;;47.110000;42.780000;;;;;;
43196;SPS30;28816;49.852;18.282;2024-01-11T18:11:44;47.340000;;46.110000;41.960000;;;;;;
43196;SPS30;28816;49.852;18.282;2024-01-11T18:16:46;48.510000;;46.140000;41.780000;;;;;;
43196;SPS30;28816;49.852;18.282;2024-01-11T18:21:48;55.740000;;53.890000;48.870000;;;;;;
43196;SPS30;28816;49.852;18.282;2024-01-11T18:26:51;52.720000;;50.760000;46.140000;;;;;;
43196;SPS30;28816;49.852;18.282;2024-01-11T18:31:53;50.050000;;48.380000;44.340000;;;;;;
43196;SPS30;28816;49.852;18.282;2024-01-11T18:36:55;50.040000;;48.160000;43.900000;;;;;;
43196;SPS30;28816;49.852;18.282;2024-01-11T18:41:57;48.420000;;46.560000;42.040000;;;;;;
43196;SPS30;28816;49.852;18.282;2024-01-11T18:46:59;48.840000;;47.350000;43.650000;;;;;;
43196;SPS30;28816;49.852;18.282;2024-01-11T18:52:01;52.150000;;50.050000;45.450000;;;;;;
43196;SPS30;28816;49.852;18.282;2024-01-11T18:57:04;51.230000;;49.470000;44.700000;;;;;;
43196;SPS30;28816;49.852;18.282;2024-01-11T19:02:06;50.620000;;47.990000;43.730000;;;;;;
43196;SPS30;28816;49.852;18.282;2024-01-11T19:07:07;45.950000;;43.750000;39.560000;;;;;;
43196;SPS30;28816;49.852;18.282;2024-01-11T19:12:10;46.000000;;44.330000;40.570000;;;;;;
43196;SPS30;28816;49.852;18.282;2024-01-11T19:17:12;45.410000;;43.790000;39.500000;;;;;;
43196;SPS30;28816;49.852;18.282;2024-01-11T19:22:14;41.200000;;39.870000;36.010000;;;;;;
43196;SPS30;28816;49.852;18.282;2024-01-11T19:27:16;39.800000;;38.550000;35.340000;;;;;;
43196;SPS30;28816;49.852;18.282;2024-01-11T19:32:19;39.210000;;38.050000;34.940000;;;;;;
43196;SPS30;28816;49.852;18.282;2024-01-11T19:37:21;37.270000;;36.220000;33.260000;;;;;;
43196;SPS30;28816;49.852;18.282;2024-01-11T19:42:23;37.360000;;36.000000;32.510000;;;;;;
43196;SPS30;28816;49.852;18.282;2024-01-11T19:47:25;35.990000;;34.950000;32.110000;;;;;;
43196;SPS30;28816;49.852;18.282;2024-01-11T19:52:28;35.610000;;34.400000;31.120000;;;;;;
43196;SPS30;28816;49.852;18.282;2024-01-11T19:57:29;32.170000;;31.090000;27.730000;;;;;;
43196;SPS30;28816;49.852;18.282;2024-01-11T20:02:32;34.030000;;33.180000;30.260000;;;;;;
43196;SPS30;28816;49.852;18.282;2024-01-11T20:07:34;34.520000;;33.420000;30.740000;;;;;;
43196;SPS30;28816;49.852;18.282;2024-01-11T20:12:36;34.710000;;33.700000;30.810000;;;;;;
43196;SPS30;28816;49.852;18.282;2024-01-11T20:17:38;34.830000;;34.230000;31.700000;;;;;;
43196;SPS30;28816;49.852;18.282;2024-01-11T20:22:41;32.300000;;31.540000;29.120000;;;;;;
43196;SPS30;28816;49.852;18.282;2024-01-11T20:27:43;34.320000;;33.260000;30.300000;;;;;;
43196;SPS30;28816;49.852;18.282;2024-01-11T20:32:45;33.950000;;32.980000;30.060000;;;;;;
43196;SPS30;28816;49.852;18.282;2024-01-11T20:37:47;32.480000;;31.690000;29.100000;;;;;;
43196;SPS30;28816;49.852;18.282;2024-01-11T20:42:50;33.900000;;33.120000;30.900000;;;;;;
43196;SPS30;28816;49.852;18.282;2024-01-11T20:47:52;35.460000;;33.920000;30.390000;;;;;;
43196;SPS30;28816;49.852;18.282;2024-01-11T20:52:54;32.520000;;31.400000;28.840000;;;;;;
43196;SPS30;28816;49.852;18.282;2024-01-11T20:57:56;32.570000;;31.480000;28.960000;;;;;;
43196;SPS30;28816;49.852;18.282;2024-01-11T21:02:58;34.090000;;32.850000;29.730000;;;;;;
43196;SPS30;28816;49.852;18.282;2024-01-11T21:08:00;32.320000;;31.070000;28.280000;;;;;;
43196;SPS30;28816;49.852;18.282;2024-01-11T21:13:03;37.200000;;36.350000;33.640000;;;;;;
43196;SPS30;28816;49.852;18.282;2024-01-11T21:18:05;32.960000;;32.530000;30.480000;;;;;;
43196;SPS30;28816;49.852;18.282;2024-01-11T21:23:07;33.580000;;32.370000;29.490000;;;;;;
43196;SPS30;28816;49.852;18.282;2024-01-11T21:28:09;31.970000;;30.980000;27.980000;;;;;;
43196;SPS30;28816;49.852;18.282;2024-01-11T21:33:12;32.820000;;31.760000;29.000000;;;;;;
43196;SPS30;28816;49.852;18.282;2024-01-11T21:38:14;33.770000;;32.510000;29.990000;;;;;;
43196;SPS30;28816;49.852;18.282;2024-01-11T21:43:16;33.030000;;31.630000;28.260000;;;;;;
43196;SPS30;28816;49.852;18.282;2024-01-11T21:48:18;32.560000;;31.200000;28.250000;;;;;;
43196;SPS30;28816;49.852;18.282;2024-01-11T21:53:20;34.070000;;33.430000;31.180000;;;;;;
43196;SPS30;28816;49.852;18.282;2024-01-11T21:58:22;31.560000;;31.280000;28.810000;;;;;;
43196;SPS30;28816;49.852;18.282;2024-01-11T22:03:24;29.020000;;28.390000;26.550000;;;;;;
43196;SPS30;28816;49.852;18.282;2024-01-11T22:08:27;28.940000;;28.130000;26.300000;;;;;;
43196;SPS30;28816;49.852;18.282;2024-01-11T22:13:29;30.000000;;28.890000;26.180000;;;;;;
43196;SPS30;28816;49.852;18.282;2024-01-11T22:18:31;30.600000;;29.950000;27.300000;;;;;;
43196;SPS30;28816;49.852;18.282;2024-01-11T22:23:33;32.670000;;31.500000;28.540000;;;;;;
43196;SPS30;28816;49.852;18.282;2024-01-11T22:28:36;30.390000;;29.290000;26.620000;;;;;;